Check out our new PWSWeather beta!
PWSweather.com
Personal Weather Stations
Station Observations

SkegnessGB

Lat: 53.147585, Lon: 0.345774

Elevation: 18

Station Type: Fine Offset WH3080

http://www.skegnessweather.info/

High Low Average
Temperature 47.3°F8.5°C 39.9°F4.4°C 44.2°F6.8°C
Dew Point 42.1°F5.6°C 37.5°F3.1°C 40.4°F4.7°C
Winds 17.4 mph 28.0 kmh 1.3 mph 2.1 kmh 9.0 mph S14.5 kmh S
Wind Gusts 20.2 mph32.5 kmh 2.5 mph4.0 kmh 10.0 mph16.1 kmh
Humidity 91% 80% 86%
Pressure 29.00 in982.1 mb 28.77 in974.3 mb -
Precipitation 0.06 in1.5 mm - -
Hour Temp Dew Point Humidity Winds Wind Gusts Pressure Precip Precip Rate Daily Precip Total
12:00 AM 39.9°F4.4°C 37.5°F3.1°C 91% 6.7 mph SSW10.8 kmh SSW 7.6 mph12.2 kmh 28.99 in981.7 mb 0.00 in0.0 mm 0.00 in0.0 mm 0.00 in0.0 mm
12:10 AM 39.9°F4.4°C 37.5°F3.1°C 91% 6.0 mph SSE9.7 kmh SSE 7.6 mph12.2 kmh 28.99 in981.7 mb 0.00 in0.0 mm 0.00 in0.0 mm 0.00 in0.0 mm
12:20 AM 39.9°F4.4°C 37.5°F3.1°C 91% 7.7 mph S12.4 kmh S 7.6 mph12.2 kmh 28.99 in981.7 mb 0.00 in0.0 mm 0.00 in0.0 mm 0.00 in0.0 mm
12:30 AM 40.1°F4.5°C 37.7°F3.2°C 91% 8.1 mph S13.0 kmh S 9.1 mph14.6 kmh 29.00 in982.1 mb 0.00 in0.0 mm 0.00 in0.0 mm 0.00 in0.0 mm
12:40 AM 40.3°F4.6°C 37.9°F3.3°C 91% 9.3 mph S15.0 kmh S 8.4 mph13.5 kmh 29.00 in982.1 mb 0.00 in0.0 mm 0.00 in0.0 mm 0.00 in0.0 mm
12:50 AM 40.5°F4.7°C 38.0°F3.3°C 91% 9.5 mph S15.3 kmh S 10.1 mph16.3 kmh 29.00 in982.1 mb 0.00 in0.0 mm 0.00 in0.0 mm 0.00 in0.0 mm
01:00 AM 40.5°F4.7°C 38.0°F3.3°C 91% 9.4 mph S15.1 kmh S 10.1 mph16.3 kmh 29.00 in982.1 mb 0.00 in0.0 mm 0.00 in0.0 mm 0.00 in0.0 mm
01:10 AM 40.6°F4.8°C 38.2°F3.4°C 91% 10.6 mph S17.1 kmh S 10.8 mph17.4 kmh 29.00 in982.1 mb 0.00 in0.0 mm 0.00 in0.0 mm 0.00 in0.0 mm
01:20 AM 40.5°F4.7°C 38.0°F3.3°C 91% 8.8 mph S14.2 kmh S 8.4 mph13.5 kmh 29.00 in982.1 mb 0.00 in0.0 mm 0.00 in0.0 mm 0.00 in0.0 mm
01:30 AM 40.3°F4.6°C 37.9°F3.3°C 91% 8.2 mph S13.2 kmh S 9.1 mph14.6 kmh 29.00 in982.1 mb 0.00 in0.0 mm 0.00 in0.0 mm 0.00 in0.0 mm
01:40 AM 40.5°F4.7°C 38.0°F3.3°C 91% 10.1 mph S16.3 kmh S 11.8 mph19.0 kmh 29.00 in982.1 mb 0.00 in0.0 mm 0.00 in0.0 mm 0.00 in0.0 mm
01:50 AM 40.6°F4.8°C 38.2°F3.4°C 91% 10.8 mph S17.4 kmh S 10.1 mph16.3 kmh 29.00 in982.1 mb 0.00 in0.0 mm 0.00 in0.0 mm 0.00 in0.0 mm
02:00 AM 40.5°F4.7°C 38.0°F3.3°C 91% 10.4 mph S16.7 kmh S 10.1 mph16.3 kmh 29.00 in982.1 mb 0.00 in0.0 mm 0.00 in0.0 mm 0.00 in0.0 mm
02:10 AM 40.3°F4.6°C 37.9°F3.3°C 91% 9.3 mph S15.0 kmh S 8.4 mph13.5 kmh 29.00 in982.1 mb 0.00 in0.0 mm 0.00 in0.0 mm 0.00 in0.0 mm
02:20 AM 40.5°F4.7°C 38.0°F3.3°C 91% 7.8 mph S12.6 kmh S 9.1 mph14.6 kmh 28.99 in981.7 mb 0.00 in0.0 mm 0.00 in0.0 mm 0.00 in0.0 mm
02:30 AM 40.5°F4.7°C 38.0°F3.3°C 91% 7.3 mph SSE11.7 kmh SSE 8.4 mph13.5 kmh 28.98 in981.4 mb 0.00 in0.0 mm 0.00 in0.0 mm 0.00 in0.0 mm
02:40 AM 40.5°F4.7°C 38.0°F3.3°C 91% 9.0 mph SSE14.5 kmh SSE 9.1 mph14.6 kmh 28.98 in981.4 mb 0.00 in0.0 mm 0.00 in0.0 mm 0.00 in0.0 mm
02:50 AM 40.6°F4.8°C 38.2°F3.4°C 91% 8.9 mph SSE14.3 kmh SSE 8.4 mph13.5 kmh 28.98 in981.4 mb 0.00 in0.0 mm 0.00 in0.0 mm 0.00 in0.0 mm
03:00 AM 40.8°F4.9°C 38.4°F3.6°C 91% 10.1 mph S16.3 kmh S 11.8 mph19.0 kmh 28.98 in981.4 mb 0.00 in0.0 mm 0.00 in0.0 mm 0.00 in0.0 mm
03:10 AM 41.0°F5.0°C 38.6°F3.7°C 91% 11.1 mph S17.9 kmh S 11.8 mph19.0 kmh 28.98 in981.4 mb 0.00 in0.0 mm 0.00 in0.0 mm 0.00 in0.0 mm
03:20 AM 41.0°F5.0°C 38.6°F3.7°C 91% 11.1 mph S17.9 kmh S 10.8 mph17.4 kmh 28.98 in981.4 mb 0.00 in0.0 mm 0.00 in0.0 mm 0.00 in0.0 mm
03:30 AM 41.2°F5.1°C 38.8°F3.8°C 91% 11.6 mph SSW18.7 kmh SSW 10.1 mph16.3 kmh 28.98 in981.4 mb 0.00 in0.0 mm 0.00 in0.0 mm 0.00 in0.0 mm
03:40 AM 41.5°F5.3°C 39.1°F3.9°C 91% 11.3 mph SSE18.2 kmh SSE 10.8 mph17.4 kmh 28.97 in981.0 mb 0.00 in0.0 mm 0.00 in0.0 mm 0.00 in0.0 mm
03:50 AM 41.7°F5.4°C 39.3°F4.1°C 91% 11.8 mph SSE19.0 kmh SSE 10.8 mph17.4 kmh 28.97 in981.0 mb 0.00 in0.0 mm 0.00 in0.0 mm 0.00 in0.0 mm
04:00 AM 41.7°F5.4°C 39.3°F4.1°C 91% 13.2 mph S21.2 kmh S 12.5 mph20.1 kmh 28.97 in981.0 mb 0.00 in0.0 mm 0.00 in0.0 mm 0.00 in0.0 mm
04:10 AM 41.9°F5.5°C 39.5°F4.2°C 91% 10.2 mph S16.4 kmh S 12.5 mph20.1 kmh 28.97 in981.0 mb 0.00 in0.0 mm 0.00 in0.0 mm 0.00 in0.0 mm
04:20 AM 41.9°F5.5°C 39.5°F4.2°C 91% 9.2 mph S14.8 kmh S 10.1 mph16.3 kmh 28.97 in981.0 mb 0.00 in0.0 mm 0.00 in0.0 mm 0.00 in0.0 mm
04:30 AM 42.3°F5.7°C 39.8°F4.3°C 91% 12.0 mph S19.3 kmh S 11.8 mph19.0 kmh 28.96 in980.7 mb 0.00 in0.0 mm 0.00 in0.0 mm 0.00 in0.0 mm
04:40 AM 42.4°F5.8°C 40.0°F4.4°C 91% 13.9 mph SSE22.4 kmh SSE 14.3 mph23.0 kmh 28.96 in980.7 mb 0.00 in0.0 mm 0.00 in0.0 mm 0.00 in0.0 mm
04:50 AM 42.4°F5.8°C 40.0°F4.4°C 91% 11.4 mph SE18.3 kmh SE 11.8 mph19.0 kmh 28.96 in980.7 mb 0.00 in0.0 mm 0.00 in0.0 mm 0.00 in0.0 mm
05:00 AM 42.4°F5.8°C 40.0°F4.4°C 91% 12.0 mph SSE19.3 kmh SSE 11.8 mph19.0 kmh 28.95 in980.4 mb 0.00 in0.0 mm 0.00 in0.0 mm 0.00 in0.0 mm
05:10 AM 42.4°F5.8°C 40.0°F4.4°C 91% 8.0 mph SSE12.9 kmh SSE 5.9 mph9.5 kmh 28.94 in980.0 mb 0.01 in0.3 mm 0.06 in1.5 mm 0.01 in0.3 mm
05:20 AM 42.6°F5.9°C 40.2°F4.6°C 91% 10.6 mph SE17.1 kmh SE 10.8 mph17.4 kmh 28.94 in980.0 mb 0.01 in0.3 mm 0.00 in0.0 mm 0.01 in0.3 mm
05:30 AM 42.6°F5.9°C 40.2°F4.6°C 91% 9.6 mph S15.4 kmh S 10.8 mph17.4 kmh 28.95 in980.4 mb 0.01 in0.3 mm 0.00 in0.0 mm 0.01 in0.3 mm
05:40 AM 42.6°F5.9°C 40.2°F4.6°C 91% 8.6 mph SSE13.8 kmh SSE 9.1 mph14.6 kmh 28.94 in980.0 mb 0.01 in0.3 mm 0.00 in0.0 mm 0.01 in0.3 mm
05:50 AM 42.8°F6.0°C 40.4°F4.7°C 91% 11.7 mph S18.8 kmh S 10.8 mph17.4 kmh 28.95 in980.4 mb 0.01 in0.3 mm 0.00 in0.0 mm 0.01 in0.3 mm
06:00 AM 42.8°F6.0°C 40.4°F4.7°C 91% 9.4 mph S15.1 kmh S 12.5 mph20.1 kmh 28.94 in980.0 mb 0.01 in0.3 mm 0.00 in0.0 mm 0.01 in0.3 mm
06:10 AM 43.0°F6.1°C 40.5°F4.7°C 91% 11.1 mph S17.9 kmh S 11.8 mph19.0 kmh 28.94 in980.0 mb 0.00 in0.0 mm 0.00 in0.0 mm 0.01 in0.3 mm
06:20 AM 43.2°F6.2°C 40.7°F4.8°C 91% 12.6 mph S20.3 kmh S 12.5 mph20.1 kmh 28.93 in979.7 mb 0.00 in0.0 mm 0.00 in0.0 mm 0.01 in0.3 mm
06:30 AM 43.3°F6.3°C 40.9°F4.9°C 91% 10.2 mph SSE16.4 kmh SSE 10.8 mph17.4 kmh 28.93 in979.7 mb 0.00 in0.0 mm 0.00 in0.0 mm 0.01 in0.3 mm
06:40 AM 43.3°F6.3°C 40.9°F4.9°C 91% 10.8 mph S17.4 kmh S 12.5 mph20.1 kmh 28.93 in979.7 mb 0.00 in0.0 mm 0.00 in0.0 mm 0.01 in0.3 mm
06:50 AM 43.3°F6.3°C 40.9°F4.9°C 91% 9.5 mph SSE15.3 kmh SSE 12.5 mph20.1 kmh 28.93 in979.7 mb 0.00 in0.0 mm 0.00 in0.0 mm 0.01 in0.3 mm
07:00 AM 43.3°F6.3°C 40.9°F4.9°C 91% 10.4 mph SSE16.7 kmh SSE 10.8 mph17.4 kmh 28.93 in979.7 mb 0.00 in0.0 mm 0.00 in0.0 mm 0.01 in0.3 mm
07:10 AM 43.3°F6.3°C 40.9°F4.9°C 91% 11.4 mph NW18.3 kmh NW 9.1 mph14.6 kmh 28.93 in979.7 mb 0.00 in0.0 mm 0.00 in0.0 mm 0.01 in0.3 mm
07:20 AM 43.5°F6.4°C 41.1°F5.1°C 91% 12.7 mph S20.4 kmh S 15.0 mph24.1 kmh 28.93 in979.7 mb 0.00 in0.0 mm 0.00 in0.0 mm 0.01 in0.3 mm
07:30 AM 43.5°F6.4°C 41.1°F5.1°C 91% 11.8 mph S19.0 kmh S 12.5 mph20.1 kmh 28.92 in979.3 mb 0.00 in0.0 mm 0.00 in0.0 mm 0.01 in0.3 mm
07:40 AM 43.7°F6.5°C 41.2°F5.1°C 91% 11.2 mph S18.0 kmh S 15.0 mph24.1 kmh 28.93 in979.7 mb 0.00 in0.0 mm 0.00 in0.0 mm 0.01 in0.3 mm
07:50 AM 43.7°F6.5°C 41.2°F5.1°C 91% 13.0 mph SE20.9 kmh SE 15.0 mph24.1 kmh 28.92 in979.3 mb 0.00 in0.0 mm 0.00 in0.0 mm 0.01 in0.3 mm
08:00 AM 43.9°F6.6°C 41.4°F5.2°C 91% 11.3 mph SE18.2 kmh SE 13.3 mph21.4 kmh 28.92 in979.3 mb 0.00 in0.0 mm 0.00 in0.0 mm 0.01 in0.3 mm
08:10 AM 43.9°F6.6°C 41.4°F5.2°C 91% 11.4 mph S18.3 kmh S 14.3 mph23.0 kmh 28.92 in979.3 mb 0.00 in0.0 mm 0.00 in0.0 mm 0.01 in0.3 mm
08:20 AM 44.1°F6.7°C 41.6°F5.3°C 91% 11.5 mph S18.5 kmh S 11.8 mph19.0 kmh 28.92 in979.3 mb 0.00 in0.0 mm 0.00 in0.0 mm 0.01 in0.3 mm
08:30 AM 44.1°F6.7°C 41.6°F5.3°C 91% 14.2 mph SSE22.9 kmh SSE 15.0 mph24.1 kmh 28.92 in979.3 mb 0.00 in0.0 mm 0.00 in0.0 mm 0.01 in0.3 mm
08:40 AM 44.1°F6.7°C 41.6°F5.3°C 91% 13.9 mph SSE22.4 kmh SSE 15.0 mph24.1 kmh 28.91 in979.0 mb 0.00 in0.0 mm 0.00 in0.0 mm 0.01 in0.3 mm
08:50 AM 44.1°F6.7°C 41.6°F5.3°C 91% 13.8 mph S22.2 kmh S 16.7 mph26.9 kmh 28.91 in979.0 mb 0.00 in0.0 mm 0.00 in0.0 mm 0.01 in0.3 mm
09:00 AM 44.1°F6.7°C 41.6°F5.3°C 91% 12.1 mph S19.5 kmh S 13.3 mph21.4 kmh 28.91 in979.0 mb 0.01 in0.3 mm 0.01 in0.3 mm 0.02 in0.5 mm
09:10 AM 43.9°F6.6°C 41.4°F5.2°C 91% 15.5 mph SSE24.9 kmh SSE 16.0 mph25.7 kmh 28.91 in979.0 mb 0.02 in0.5 mm 0.06 in1.5 mm 0.04 in1.0 mm
09:20 AM 43.7°F6.5°C 41.2°F5.1°C 91% 15.2 mph SSW24.5 kmh SSW 15.0 mph24.1 kmh 28.90 in978.7 mb 0.02 in0.5 mm 0.00 in0.0 mm 0.04 in1.0 mm
09:30 AM 43.7°F6.5°C 41.2°F5.1°C 91% 13.7 mph S22.0 kmh S 15.0 mph24.1 kmh 28.90 in978.7 mb 0.02 in0.5 mm 0.00 in0.0 mm 0.04 in1.0 mm
09:40 AM 43.9°F6.6°C 41.4°F5.2°C 91% 13.1 mph SSE21.1 kmh SSE 13.3 mph21.4 kmh 28.90 in978.7 mb 0.02 in0.5 mm 0.00 in0.0 mm 0.04 in1.0 mm
09:50 AM 44.1°F6.7°C 41.6°F5.3°C 91% 13.4 mph SSE21.6 kmh SSE 13.3 mph21.4 kmh 28.90 in978.7 mb 0.02 in0.5 mm 0.00 in0.0 mm 0.04 in1.0 mm
10:00 AM 44.2°F6.8°C 41.8°F5.4°C 91% 11.3 mph S18.2 kmh S 13.3 mph21.4 kmh 28.90 in978.7 mb 0.01 in0.3 mm 0.00 in0.0 mm 0.04 in1.0 mm
10:10 AM 44.6°F7.0°C 40.7°F4.8°C 86% 14.4 mph SSE23.2 kmh SSE 14.3 mph23.0 kmh 28.90 in978.7 mb 0.00 in0.0 mm 0.00 in0.0 mm 0.04 in1.0 mm
10:20 AM 44.6°F7.0°C 40.7°F4.8°C 86% 15.3 mph S24.6 kmh S 14.3 mph23.0 kmh 28.90 in978.7 mb 0.00 in0.0 mm 0.00 in0.0 mm 0.04 in1.0 mm
10:30 AM 44.8°F7.1°C 40.8°F4.9°C 86% 15.2 mph S24.5 kmh S 15.0 mph24.1 kmh 28.89 in978.3 mb 0.00 in0.0 mm 0.00 in0.0 mm 0.04 in1.0 mm
10:40 AM 45.0°F7.2°C 40.7°F4.8°C 85% 16.0 mph SE25.7 kmh SE 17.5 mph28.2 kmh 28.89 in978.3 mb 0.00 in0.0 mm 0.00 in0.0 mm 0.04 in1.0 mm
10:50 AM 45.0°F7.2°C 40.4°F4.7°C 84% 17.4 mph S28.0 kmh S 18.5 mph29.8 kmh 28.89 in978.3 mb 0.00 in0.0 mm 0.00 in0.0 mm 0.04 in1.0 mm
11:00 AM 45.0°F7.2°C 40.1°F4.5°C 83% 15.2 mph S24.5 kmh S 16.0 mph25.7 kmh 28.89 in978.3 mb 0.00 in0.0 mm 0.00 in0.0 mm 0.04 in1.0 mm
11:10 AM 45.0°F7.2°C 40.1°F4.5°C 83% 12.2 mph SW19.6 kmh SW 14.3 mph23.0 kmh 28.89 in978.3 mb 0.00 in0.0 mm 0.00 in0.0 mm 0.04 in1.0 mm
11:20 AM 45.1°F7.3°C 40.0°F4.4°C 82% 15.8 mph SSE25.4 kmh SSE 20.2 mph32.5 kmh 28.88 in978.0 mb 0.00 in0.0 mm 0.00 in0.0 mm 0.04 in1.0 mm
11:30 AM 45.1°F7.3°C 40.0°F4.4°C 82% 14.3 mph S23.0 kmh S 16.7 mph26.9 kmh 28.88 in978.0 mb 0.00 in0.0 mm 0.00 in0.0 mm 0.04 in1.0 mm
11:40 AM 45.3°F7.4°C 40.1°F4.5°C 82% 13.0 mph SE20.9 kmh SE 11.8 mph19.0 kmh 28.88 in978.0 mb 0.00 in0.0 mm 0.00 in0.0 mm 0.04 in1.0 mm
11:50 AM 45.5°F7.5°C 40.3°F4.6°C 82% 14.3 mph S23.0 kmh S 15.0 mph24.1 kmh 28.88 in978.0 mb 0.00 in0.0 mm 0.00 in0.0 mm 0.04 in1.0 mm
12:00 PM 45.7°F7.6°C 40.8°F4.9°C 83% 12.2 mph S19.6 kmh S 12.5 mph20.1 kmh 28.88 in978.0 mb 0.00 in0.0 mm 0.00 in0.0 mm 0.04 in1.0 mm
12:10 PM 45.5°F7.5°C 40.3°F4.6°C 82% 11.6 mph SSW18.7 kmh SSW 12.5 mph20.1 kmh 28.87 in977.7 mb 0.00 in0.0 mm 0.00 in0.0 mm 0.04 in1.0 mm
12:20 PM 45.9°F7.7°C 41.0°F5.0°C 83% 12.5 mph S20.1 kmh S 12.5 mph20.1 kmh 28.86 in977.3 mb 0.00 in0.0 mm 0.00 in0.0 mm 0.04 in1.0 mm
12:30 PM 46.0°F7.8°C 41.2°F5.1°C 83% 11.8 mph S19.0 kmh S 11.8 mph19.0 kmh 28.85 in977.0 mb 0.00 in0.0 mm 0.00 in0.0 mm 0.04 in1.0 mm
12:40 PM 46.4°F8.0°C 41.5°F5.3°C 83% 12.2 mph S19.6 kmh S 11.8 mph19.0 kmh 28.85 in977.0 mb 0.00 in0.0 mm 0.00 in0.0 mm 0.04 in1.0 mm
12:50 PM 46.6°F8.1°C 41.4°F5.2°C 82% 11.5 mph S18.5 kmh S 13.3 mph21.4 kmh 28.85 in977.0 mb 0.00 in0.0 mm 0.00 in0.0 mm 0.04 in1.0 mm
01:00 PM 46.6°F8.1°C 41.4°F5.2°C 82% 12.5 mph SSE20.1 kmh SSE 13.3 mph21.4 kmh 28.85 in977.0 mb 0.00 in0.0 mm 0.00 in0.0 mm 0.04 in1.0 mm
01:10 PM 46.8°F8.2°C 41.6°F5.3°C 82% 14.0 mph WSW22.5 kmh WSW 13.3 mph21.4 kmh 28.85 in977.0 mb 0.00 in0.0 mm 0.00 in0.0 mm 0.04 in1.0 mm
01:20 PM 46.8°F8.2°C 41.6°F5.3°C 82% 12.5 mph SSW20.1 kmh SSW 13.3 mph21.4 kmh 28.84 in976.6 mb 0.00 in0.0 mm 0.00 in0.0 mm 0.04 in1.0 mm
01:30 PM 46.4°F8.0°C 40.9°F4.9°C 81% 10.5 mph SW16.9 kmh SW 12.5 mph20.1 kmh 28.84 in976.6 mb 0.00 in0.0 mm 0.00 in0.0 mm 0.04 in1.0 mm
01:40 PM 46.4°F8.0°C 41.2°F5.1°C 82% 11.5 mph S18.5 kmh S 10.8 mph17.4 kmh 28.84 in976.6 mb 0.00 in0.0 mm 0.00 in0.0 mm 0.04 in1.0 mm
01:50 PM 47.1°F8.4°C 41.9°F5.5°C 82% 11.0 mph S17.7 kmh S 12.5 mph20.1 kmh 28.83 in976.3 mb 0.00 in0.0 mm 0.00 in0.0 mm 0.04 in1.0 mm
02:00 PM 47.3°F8.5°C 42.1°F5.6°C 82% 12.2 mph S19.6 kmh S 11.8 mph19.0 kmh 28.83 in976.3 mb 0.00 in0.0 mm 0.00 in0.0 mm 0.04 in1.0 mm
02:10 PM 47.3°F8.5°C 42.1°F5.6°C 82% 10.2 mph S16.4 kmh S 12.5 mph20.1 kmh 28.83 in976.3 mb 0.00 in0.0 mm 0.00 in0.0 mm 0.04 in1.0 mm
02:20 PM 47.3°F8.5°C 41.8°F5.4°C 81% 8.2 mph S13.2 kmh S 11.8 mph19.0 kmh 28.82 in976.0 mb 0.00 in0.0 mm 0.00 in0.0 mm 0.04 in1.0 mm
02:30 PM 47.1°F8.4°C 41.6°F5.3°C 81% 11.3 mph S18.2 kmh S 11.8 mph19.0 kmh 28.82 in976.0 mb 0.00 in0.0 mm 0.00 in0.0 mm 0.04 in1.0 mm
02:40 PM 47.1°F8.4°C 41.6°F5.3°C 81% 11.2 mph SSE18.0 kmh SSE 12.5 mph20.1 kmh 28.82 in976.0 mb 0.00 in0.0 mm 0.00 in0.0 mm 0.04 in1.0 mm
02:50 PM 47.1°F8.4°C 41.6°F5.3°C 81% 11.4 mph SSE18.3 kmh SSE 10.1 mph16.3 kmh 28.82 in976.0 mb 0.00 in0.0 mm 0.00 in0.0 mm 0.04 in1.0 mm
03:00 PM 46.9°F8.3°C 41.4°F5.2°C 81% 10.6 mph SSE17.1 kmh SSE 10.1 mph16.3 kmh 28.82 in976.0 mb 0.00 in0.0 mm 0.00 in0.0 mm 0.04 in1.0 mm
03:10 PM 46.9°F8.3°C 41.4°F5.2°C 81% 10.3 mph SSE16.6 kmh SSE 10.1 mph16.3 kmh 28.82 in976.0 mb 0.00 in0.0 mm 0.00 in0.0 mm 0.04 in1.0 mm
03:20 PM 46.9°F8.3°C 41.1°F5.1°C 80% 13.3 mph SE21.4 kmh SE 12.5 mph20.1 kmh 28.82 in976.0 mb 0.00 in0.0 mm 0.00 in0.0 mm 0.04 in1.0 mm
03:30 PM 46.8°F8.2°C 40.9°F4.9°C 80% 11.5 mph S18.5 kmh S 12.5 mph20.1 kmh 28.82 in976.0 mb 0.00 in0.0 mm 0.00 in0.0 mm 0.04 in1.0 mm
03:40 PM 46.8°F8.2°C 40.9°F4.9°C 80% 13.7 mph S22.0 kmh S 12.5 mph20.1 kmh 28.82 in976.0 mb 0.00 in0.0 mm 0.00 in0.0 mm 0.04 in1.0 mm
03:50 PM 46.8°F8.2°C 40.9°F4.9°C 80% 14.0 mph SSW22.5 kmh SSW 16.7 mph26.9 kmh 28.82 in976.0 mb 0.00 in0.0 mm 0.00 in0.0 mm 0.04 in1.0 mm
04:00 PM 46.6°F8.1°C 40.7°F4.8°C 80% 10.6 mph SSE17.1 kmh SSE 10.8 mph17.4 kmh 28.83 in976.3 mb 0.00 in0.0 mm 0.00 in0.0 mm 0.04 in1.0 mm
04:10 PM 46.2°F7.9°C 40.4°F4.7°C 80% 11.1 mph S17.9 kmh S 14.3 mph23.0 kmh 28.83 in976.3 mb 0.00 in0.0 mm 0.00 in0.0 mm 0.04 in1.0 mm
04:20 PM 46.0°F7.8°C 40.2°F4.6°C 80% 11.5 mph SSE18.5 kmh SSE 11.8 mph19.0 kmh 28.82 in976.0 mb 0.00 in0.0 mm 0.00 in0.0 mm 0.04 in1.0 mm
04:30 PM 46.0°F7.8°C 40.2°F4.6°C 80% 9.8 mph SE15.8 kmh SE 10.1 mph16.3 kmh 28.82 in976.0 mb 0.00 in0.0 mm 0.00 in0.0 mm 0.04 in1.0 mm
04:40 PM 46.0°F7.8°C 40.5°F4.7°C 81% 11.0 mph SSE17.7 kmh SSE 10.8 mph17.4 kmh 28.82 in976.0 mb 0.00 in0.0 mm 0.00 in0.0 mm 0.04 in1.0 mm
04:50 PM 46.0°F7.8°C 40.5°F4.7°C 81% 9.8 mph S15.8 kmh S 10.1 mph16.3 kmh 28.82 in976.0 mb 0.00 in0.0 mm 0.00 in0.0 mm 0.04 in1.0 mm
05:00 PM 45.9°F7.7°C 40.7°F4.8°C 82% 6.8 mph SE10.9 kmh SE 7.6 mph12.2 kmh 28.81 in975.6 mb 0.00 in0.0 mm 0.00 in0.0 mm 0.04 in1.0 mm
05:10 PM 45.9°F7.7°C 40.7°F4.8°C 82% 3.2 mph N5.1 kmh N 5.9 mph9.5 kmh 28.81 in975.6 mb 0.00 in0.0 mm 0.00 in0.0 mm 0.04 in1.0 mm
05:20 PM 45.9°F7.7°C 40.7°F4.8°C 82% 5.9 mph SE9.5 kmh SE 8.4 mph13.5 kmh 28.82 in976.0 mb 0.00 in0.0 mm 0.00 in0.0 mm 0.04 in1.0 mm
05:30 PM 45.9°F7.7°C 40.7°F4.8°C 82% 5.7 mph SE9.2 kmh SE 5.9 mph9.5 kmh 28.81 in975.6 mb 0.00 in0.0 mm 0.00 in0.0 mm 0.04 in1.0 mm
05:40 PM 45.7°F7.6°C 40.5°F4.7°C 82% 5.7 mph SSE9.2 kmh SSE 9.1 mph14.6 kmh 28.81 in975.6 mb 0.00 in0.0 mm 0.00 in0.0 mm 0.04 in1.0 mm
05:50 PM 45.7°F7.6°C 40.5°F4.7°C 82% 9.7 mph SSE15.6 kmh SSE 11.8 mph19.0 kmh 28.81 in975.6 mb 0.00 in0.0 mm 0.00 in0.0 mm 0.04 in1.0 mm
06:00 PM 45.7°F7.6°C 40.8°F4.9°C 83% 9.8 mph SSE15.8 kmh SSE 13.3 mph21.4 kmh 28.81 in975.6 mb 0.00 in0.0 mm 0.00 in0.0 mm 0.04 in1.0 mm
06:10 PM 45.7°F7.6°C 40.8°F4.9°C 83% 8.8 mph SE14.2 kmh SE 12.5 mph20.1 kmh 28.80 in975.3 mb 0.01 in0.3 mm 0.06 in1.5 mm 0.05 in1.3 mm
06:20 PM 45.7°F7.6°C 40.8°F4.9°C 83% 7.0 mph SSW11.3 kmh SSW 7.6 mph12.2 kmh 28.80 in975.3 mb 0.01 in0.3 mm 0.00 in0.0 mm 0.05 in1.3 mm
06:30 PM 45.5°F7.5°C 40.6°F4.8°C 83% 7.9 mph S12.7 kmh S 8.4 mph13.5 kmh 28.80 in975.3 mb 0.01 in0.3 mm 0.00 in0.0 mm 0.05 in1.3 mm
06:40 PM 45.5°F7.5°C 40.9°F4.9°C 84% 5.8 mph SSE9.3 kmh SSE 5.9 mph9.5 kmh 28.80 in975.3 mb 0.02 in0.5 mm 0.06 in1.5 mm 0.06 in1.5 mm
06:50 PM 45.3°F7.4°C 40.8°F4.9°C 84% 3.8 mph S6.1 kmh S 5.9 mph9.5 kmh 28.79 in974.9 mb 0.02 in0.5 mm 0.00 in0.0 mm 0.06 in1.5 mm
07:00 PM 45.3°F7.4°C 40.8°F4.9°C 84% 5.2 mph S8.4 kmh S 5.9 mph9.5 kmh 28.79 in974.9 mb 0.02 in0.5 mm 0.00 in0.0 mm 0.06 in1.5 mm
07:10 PM 45.1°F7.3°C 40.6°F4.8°C 84% 3.0 mph SSE4.8 kmh SSE 4.9 mph7.9 kmh 28.79 in974.9 mb 0.01 in0.3 mm 0.00 in0.0 mm 0.06 in1.5 mm
07:20 PM 45.0°F7.2°C 40.4°F4.7°C 84% 4.4 mph SSE7.1 kmh SSE 8.4 mph13.5 kmh 28.78 in974.6 mb 0.01 in0.3 mm 0.00 in0.0 mm 0.06 in1.5 mm
07:30 PM 45.0°F7.2°C 40.4°F4.7°C 84% 3.0 mph SSW4.8 kmh SSW 7.6 mph12.2 kmh 28.79 in974.9 mb 0.01 in0.3 mm 0.00 in0.0 mm 0.06 in1.5 mm
07:40 PM 45.0°F7.2°C 40.4°F4.7°C 84% 4.5 mph SE7.2 kmh SE 4.9 mph7.9 kmh 28.78 in974.6 mb 0.00 in0.0 mm 0.00 in0.0 mm 0.06 in1.5 mm
07:50 PM 44.8°F7.1°C 40.2°F4.6°C 84% 3.5 mph S5.6 kmh S 4.9 mph7.9 kmh 28.78 in974.6 mb 0.00 in0.0 mm 0.00 in0.0 mm 0.06 in1.5 mm
08:00 PM 44.8°F7.1°C 40.2°F4.6°C 84% 2.3 mph ENE3.7 kmh ENE 4.9 mph7.9 kmh 28.78 in974.6 mb 0.00 in0.0 mm 0.00 in0.0 mm 0.06 in1.5 mm
08:10 PM 44.8°F7.1°C 40.2°F4.6°C 84% 2.0 mph WSW3.2 kmh WSW 4.2 mph6.8 kmh 28.77 in974.3 mb 0.00 in0.0 mm 0.00 in0.0 mm 0.06 in1.5 mm
08:20 PM 44.6°F7.0°C 40.1°F4.5°C 84% 2.3 mph SW3.7 kmh SW 4.2 mph6.8 kmh 28.78 in974.6 mb 0.00 in0.0 mm 0.00 in0.0 mm 0.06 in1.5 mm
08:30 PM 44.8°F7.1°C 40.2°F4.6°C 84% 2.3 mph WSW3.7 kmh WSW 3.4 mph5.5 kmh 28.77 in974.3 mb 0.00 in0.0 mm 0.00 in0.0 mm 0.06 in1.5 mm
08:40 PM 44.8°F7.1°C 40.2°F4.6°C 84% 4.0 mph SSE6.4 kmh SSE 7.6 mph12.2 kmh 28.77 in974.3 mb 0.00 in0.0 mm 0.00 in0.0 mm 0.06 in1.5 mm
08:50 PM 45.0°F7.2°C 40.4°F4.7°C 84% 4.4 mph NNE7.1 kmh NNE 7.6 mph12.2 kmh 28.78 in974.6 mb 0.00 in0.0 mm 0.00 in0.0 mm 0.06 in1.5 mm
09:00 PM 45.0°F7.2°C 40.4°F4.7°C 84% 2.7 mph SSW4.3 kmh SSW 7.6 mph12.2 kmh 28.77 in974.3 mb 0.00 in0.0 mm 0.00 in0.0 mm 0.06 in1.5 mm
09:10 PM 44.8°F7.1°C 40.2°F4.6°C 84% 2.8 mph NW4.5 kmh NW 4.2 mph6.8 kmh 28.78 in974.6 mb 0.00 in0.0 mm 0.00 in0.0 mm 0.06 in1.5 mm
09:20 PM 44.8°F7.1°C 40.2°F4.6°C 84% 2.3 mph NNE3.7 kmh NNE 4.2 mph6.8 kmh 28.77 in974.3 mb 0.00 in0.0 mm 0.00 in0.0 mm 0.06 in1.5 mm
09:30 PM 44.8°F7.1°C 40.2°F4.6°C 84% 2.4 mph SW3.9 kmh SW 5.9 mph9.5 kmh 28.77 in974.3 mb 0.00 in0.0 mm 0.00 in0.0 mm 0.06 in1.5 mm
09:40 PM 44.8°F7.1°C 40.5°F4.7°C 85% 1.9 mph SW3.1 kmh SW 3.4 mph5.5 kmh 28.77 in974.3 mb 0.00 in0.0 mm 0.00 in0.0 mm 0.06 in1.5 mm
09:50 PM 45.0°F7.2°C 40.7°F4.8°C 85% 2.3 mph SSW3.7 kmh SSW 5.9 mph9.5 kmh 28.77 in974.3 mb 0.00 in0.0 mm 0.00 in0.0 mm 0.06 in1.5 mm
10:00 PM 45.0°F7.2°C 40.7°F4.8°C 85% 3.9 mph ENE6.3 kmh ENE 6.6 mph10.6 kmh 28.77 in974.3 mb 0.00 in0.0 mm 0.00 in0.0 mm 0.06 in1.5 mm
10:10 PM 45.0°F7.2°C 40.7°F4.8°C 85% 2.3 mph NNW3.7 kmh NNW 4.2 mph6.8 kmh 28.77 in974.3 mb 0.00 in0.0 mm 0.00 in0.0 mm 0.06 in1.5 mm
10:20 PM 45.1°F7.3°C 40.9°F4.9°C 85% 2.7 mph NW4.3 kmh NW 4.9 mph7.9 kmh 28.77 in974.3 mb 0.00 in0.0 mm 0.00 in0.0 mm 0.06 in1.5 mm
10:30 PM 45.1°F7.3°C 40.9°F4.9°C 85% 2.1 mph W3.4 kmh W 3.4 mph5.5 kmh 28.77 in974.3 mb 0.00 in0.0 mm 0.00 in0.0 mm 0.06 in1.5 mm
10:40 PM 45.3°F7.4°C 41.1°F5.1°C 85% 2.2 mph WSW3.5 kmh WSW 3.4 mph5.5 kmh 28.77 in974.3 mb 0.00 in0.0 mm 0.00 in0.0 mm 0.06 in1.5 mm
10:50 PM 45.5°F7.5°C 41.3°F5.2°C 85% 2.2 mph WNW3.5 kmh WNW 3.4 mph5.5 kmh 28.77 in974.3 mb 0.00 in0.0 mm 0.00 in0.0 mm 0.06 in1.5 mm
11:00 PM 45.7°F7.6°C 41.4°F5.2°C 85% 1.5 mph WSW2.4 kmh WSW 4.2 mph6.8 kmh 28.77 in974.3 mb 0.00 in0.0 mm 0.00 in0.0 mm 0.06 in1.5 mm
11:10 PM 45.7°F7.6°C 41.4°F5.2°C 85% 1.3 mph N2.1 kmh N 2.5 mph4.0 kmh 28.77 in974.3 mb 0.00 in0.0 mm 0.00 in0.0 mm 0.06 in1.5 mm
11:20 PM 45.7°F7.6°C 41.4°F5.2°C 85% 1.8 mph NW2.9 kmh NW 4.2 mph6.8 kmh 28.77 in974.3 mb 0.00 in0.0 mm 0.00 in0.0 mm 0.06 in1.5 mm
11:30 PM 45.7°F7.6°C 41.4°F5.2°C 85% 2.5 mph NW4.0 kmh NW 4.2 mph6.8 kmh 28.77 in974.3 mb 0.00 in0.0 mm 0.00 in0.0 mm 0.06 in1.5 mm
11:40 PM 45.7°F7.6°C 41.1°F5.1°C 84% 1.3 mph NNW2.1 kmh NNW 2.5 mph4.0 kmh 28.77 in974.3 mb 0.00 in0.0 mm 0.00 in0.0 mm 0.06 in1.5 mm
11:50 PM 45.5°F7.5°C 40.9°F4.9°C 84% 1.8 mph NNE2.9 kmh NNE 4.2 mph6.8 kmh 28.77 in974.3 mb 0.00 in0.0 mm 0.00 in0.0 mm 0.06 in1.5 mm